Aeroporto :
LOGIN :

Iscrizione | Disclaimer

   EN    FR    IT 

 










Sommario :    VFR   VFR Marginale   IFR   IFR Intensivo   IFR Molto Intensivo
Visibilità : 
Base nubi : 
>= 8 km
>= 3000ft
5 / 8 km
1000 / 3000 ft
1500m / 5 km
500 / 1000 ft
800 / 1500m
200 / 500 ft
< 800m
< 200 ft
Simboli :   Temporali  Nebbia  Neve Forte  Precipitazioni Forti  Vento > 20 kt
SIGMETs :   Varie  Temporali  Ghiacco  Turbolenza  Onda orograficha  Ceneri Vulcaniche






- Altitudine del aeroporto : 472 ft
- Codice IATA : GME


UMGG - Gomel

ULTIMO METAR :
  • 071030Z 20003MPS CAVOK 16/M01 Q1035 R28/D NOSIG

METARs OBSOLETI :
  • 071000Z 19003MPS CAVOK 16/M01 Q1036 R28/CLRD// NOSIG
  • 070930Z 21003MPS CAVOK 16/M01 Q1036 R28/CLRD// NOSIG
  • 070900Z 22004MPS CAVOK 16/M01 Q1036 R28/D NOSIG
  • 070830Z 18004MPS CAVOK 13/M03 Q1036 R10/D NOSIG
  • 070800Z 16004MPS CAVOK 13/M03 Q1036 R10/CLRD// NOSIG

TAF TAF UMGG
Valido dal 07 a 06 ore il 08 a 06 ore UTC


070455Z 0706/0806 22006MPS 9999 SCT025
TEMPO 0710/0802 23007G12MPS
BECMG 0802/0804 25006MPS
TEMPO 0804/0806 28008G13MPS



MetMap, La meteo Aeronautica in un colpo d'occhio ! - Copyright ORBIFLY Dicembre 2007 - Disclaimer

ORBIFLY MET'MAP TEAM :

Programmazione e sviluppo : Alexandra Zaïnal
Concezione : Baudouin d'Aumeries
Aiuto per la programmazione : Marc-Olivier Méhu
Supporto tecnico e logistico : Manuel Goepfert
Aiuto per la traduzione : Arnaldo La Scala

Contatto : metmap@orbifly.com




FONTI E CREDITI :

   NOAA